Time;durP1;ratioP1;P1;durP2;ratioP2;P2;SDS_P1;SDS_P2;PMS_P1;PMS_P2;Temp;Humidity;BMP_temperature;BMP_pressure;BME280_temperature;BME280_humidity;BME280_pressure;Samples;Min_cycle;Max_cycle;Signal;HPM_P1;HPM_P2
2022/05/13 00:01:37;;;;;;;;;;;;;;;26.26;43.45;94704.56;5009329;28;7441;-56
2022/05/13 00:04:03;;;;;;;;;;;;;;;26.23;43.45;94692.56;5011952;28;7137;-56
2022/05/13 00:06:39;;;;;;;;;;;;;;;26.23;42.97;94692.56;5012531;28;8914;-56
2022/05/13 00:09:05;;;;;;;;;;;;;;;26.21;43.52;94688.81;5015401;28;9676;-56
2022/05/13 00:11:32;;;;;;;;;;;;;;;26.22;42.98;94682.03;5027609;28;6880;-56
2022/05/13 00:13:58;;;;;;;;;;;;;;;26.22;43.39;94679.28;5010396;28;9745;-56
2022/05/13 00:16:24;;;;;;;;;;;;;;;26.25;42.54;94670.00;5013561;28;10132;-56
2022/05/13 00:18:52;;;;;;;;;;;;;;;26.20;43.15;94659.75;5009193;28;8772;-56
2022/05/13 00:21:20;;;;;;;;;;;;;;;26.24;42.70;94668.50;5022647;28;8000;-56
2022/05/13 00:24:23;;;;;;;;;;;;;;;26.22;43.09;94677.28;5029611;28;9112;-56
2022/05/13 00:26:49;;;;;;;;;;;;;;;26.26;43.33;94685.28;4953547;28;9783;-56
2022/05/13 00:29:16;;;;;;;;;;;;;;;26.23;42.85;94670.50;4942071;28;9509;-56
2022/05/13 00:31:45;;;;;;;;;;;;;;;26.19;43.34;94670.00;4946037;28;9503;-56
2022/05/13 00:34:11;;;;;;;;;;;;;;;26.19;43.18;94669.28;4938002;28;7939;-56
2022/05/13 00:36:44;;;;;;;;;;;;;;;26.23;43.58;94669.75;4949836;28;9147;-56
2022/05/13 00:39:19;;;;;;;;;;;;;;;26.22;43.27;94663.50;4936281;28;9070;-56
2022/05/13 00:41:55;;;;;;;;;;;;;;;26.24;43.63;94665.72;4934392;28;7057;-56
2022/05/13 00:44:21;;;;;;;;;;;;;;;26.25;43.26;94672.75;4935668;28;7312;-56
2022/05/13 00:46:52;;;;;;;;;;;;;;;26.23;43.33;94670.50;4953388;28;8901;-56
2022/05/13 00:49:23;;;;;;;;;;;;;;;26.23;43.37;94667.00;4935270;28;8736;-56
2022/05/13 00:51:49;;;;;;;;;;;;;;;26.24;42.70;94671.25;4941386;28;7291;-56
2022/05/13 00:54:24;;;;;;;;;;;;;;;26.22;42.92;94680.03;4930809;28;9067;-56
2022/05/13 00:56:53;;;;;;;;;;;;;;;26.22;42.92;94673.75;4935206;28;8790;-56
2022/05/13 00:59:24;;;;;;;;;;;;;;;26.22;43.01;94663.50;4952612;28;9069;-56
2022/05/13 01:01:50;;;;;;;;;;;;;;;26.21;43.27;94655.72;5010225;28;7314;-56
2022/05/13 01:04:31;;;;;;;;;;;;;;;26.24;42.68;94643.66;5016497;28;7255;-56
2022/05/13 01:07:03;;;;;;;;;;;;;;;26.22;43.57;94643.44;5022586;28;9750;-56
2022/05/13 01:09:36;;;;;;;;;;;;;;;26.20;42.93;94637.69;5017030;28;9442;-56
2022/05/13 01:12:10;;;;;;;;;;;;;;;26.18;43.03;94635.44;5023425;28;7008;-56
2022/05/13 01:14:46;;;;;;;;;;;;;;;26.22;43.11;94630.41;5012331;28;7305;-56
2022/05/13 01:20:19;;;;;;;;;;;;;;;26.21;43.57;94619.91;5031657;28;6996;-56
2022/05/13 01:22:50;;;;;;;;;;;;;;;26.22;43.03;94611.09;5006701;28;7454;-56
2022/05/13 01:25:20;;;;;;;;;;;;;;;26.19;43.60;94620.38;5008390;28;9501;-56
2022/05/13 01:27:48;;;;;;;;;;;;;;;26.21;42.75;94622.66;5028388;28;6910;-55
2022/05/13 01:30:26;;;;;;;;;;;;;;;26.20;42.93;94627.41;5007192;28;7283;-56
2022/05/13 01:32:53;;;;;;;;;;;;;;;26.21;43.47;94628.16;5003244;28;7224;-56
2022/05/13 01:35:20;;;;;;;;;;;;;;;26.22;42.92;94630.41;5025374;28;9075;-56
2022/05/13 01:37:47;;;;;;;;;;;;;;;26.20;42.72;94630.16;5019200;28;7841;-56
2022/05/13 01:40:13;;;;;;;;;;;;;;;26.20;42.79;94629.41;5008493;28;8711;-56
2022/05/13 01:42:40;;;;;;;;;;;;;;;26.16;43.00;94616.63;5014207;28;9307;-56
2022/05/13 01:45:12;;;;;;;;;;;;;;;26.21;43.15;94626.13;5004816;28;9859;-56
2022/05/13 01:47:38;;;;;;;;;;;;;;;26.20;43.51;94618.38;5028222;28;7267;-56
2022/05/13 01:50:08;;;;;;;;;;;;;;;26.21;43.58;94619.91;5015180;28;8886;-55
2022/05/13 01:52:34;;;;;;;;;;;;;;;26.21;43.04;94619.91;5002675;28;7853;-56
2022/05/13 01:55:00;;;;;;;;;;;;;;;26.22;43.16;94624.13;5005586;28;7050;-56
2022/05/13 01:57:27;;;;;;;;;;;;;;;26.20;43.19;94627.41;5011796;28;8879;-57
2022/05/13 01:59:53;;;;;;;;;;;;;;;26.19;43.49;94625.16;5011563;28;9111;-56
2022/05/13 02:02:20;;;;;;;;;;;;;;;26.19;43.05;94631.41;5004857;28;9056;-56
2022/05/13 02:04:48;;;;;;;;;;;;;;;26.16;43.55;94622.16;5026604;28;9254;-55
2022/05/13 02:07:16;;;;;;;;;;;;;;;26.19;43.80;94636.94;5007136;28;7275;-57
2022/05/13 02:09:43;;;;;;;;;;;;;;;26.17;43.36;94626.41;5014602;28;8747;-56
2022/05/13 02:12:11;;;;;;;;;;;;;;;26.16;43.65;94627.66;5013482;28;7282;-56
2022/05/13 02:14:37;;;;;;;;;;;;;;;26.15;43.13;94620.66;5023847;28;6852;-56
2022/05/13 02:17:04;;;;;;;;;;;;;;;26.18;43.60;94621.66;5026776;28;7006;-56
2022/05/13 02:19:30;;;;;;;;;;;;;;;26.18;43.43;94624.41;5011083;28;8863;-56
2022/05/13 02:21:55;;;;;;;;;;;;;;;26.16;43.54;94615.91;5018386;28;8771;-56
2022/05/13 02:24:21;;;;;;;;;;;;;;;26.13;43.60;94623.19;5024683;28;9173;-56
2022/05/13 02:26:49;;;;;;;;;;;;;;;26.14;43.07;94618.44;5022062;28;8931;-56
2022/05/13 02:29:15;;;;;;;;;;;;;;;26.15;42.97;94617.16;5010225;28;9307;-57
2022/05/13 02:31:41;;;;;;;;;;;;;;;26.13;43.12;94609.41;5019107;28;7232;-57
2022/05/13 02:34:07;;;;;;;;;;;;;;;26.15;42.90;94611.63;5017444;28;7156;-57
2022/05/13 02:36:33;;;;;;;;;;;;;;;26.13;42.65;94616.91;5024910;28;9311;-57
2022/05/13 02:39:02;;;;;;;;;;;;;;;26.13;42.95;94614.16;5025006;28;7586;-57
2022/05/13 02:41:28;;;;;;;;;;;;;;;26.15;43.24;94603.38;5020959;28;7315;-57
2022/05/13 02:43:55;;;;;;;;;;;;;;;26.18;42.60;94602.34;5014727;28;7692;-57
2022/05/13 02:46:29;;;;;;;;;;;;;;;26.15;43.44;94614.41;4997939;28;9184;-57
2022/05/13 02:48:56;;;;;;;;;;;;;;;26.10;43.16;94602.13;5022028;28;7276;-57
2022/05/13 02:51:23;;;;;;;;;;;;;;;26.13;43.64;94612.16;5006228;28;7111;-57
2022/05/13 02:53:49;;;;;;;;;;;;;;;26.10;42.71;94615.91;5006121;28;7258;-57
2022/05/13 02:56:15;;;;;;;;;;;;;;;26.09;43.49;94603.41;5005596;28;7244;-57
2022/05/13 02:58:41;;;;;;;;;;;;;;;26.13;43.25;94619.66;5009643;28;7256;-57
2022/05/13 03:01:10;;;;;;;;;;;;;;;26.14;43.24;94613.63;5001565;28;7240;-57
2022/05/13 03:03:39;;;;;;;;;;;;;;;26.15;42.56;94615.16;5026173;28;7234;-57
2022/05/13 03:06:05;;;;;;;;;;;;;;;26.12;42.61;94613.41;5022198;28;7258;-57
2022/05/13 03:08:31;;;;;;;;;;;;;;;26.11;43.12;94620.19;5010521;28;8733;-57
2022/05/13 03:10:57;;;;;;;;;;;;;;;26.10;43.61;94612.41;5015488;28;6977;-57
2022/05/13 03:13:23;;;;;;;;;;;;;;;26.09;43.37;94608.16;5012434;28;9245;-57
2022/05/13 03:15:49;;;;;;;;;;;;;;;26.08;42.87;94612.91;5009601;28;8849;-57
2022/05/13 03:18:15;;;;;;;;;;;;;;;26.07;43.58;94608.66;5023659;28;7357;-57
2022/05/13 03:20:41;;;;;;;;;;;;;;;26.08;42.62;94615.69;5034489;28;9384;-57
2022/05/13 03:23:07;;;;;;;;;;;;;;;26.06;43.61;94618.16;5015694;28;9435;-57
2022/05/13 03:25:33;;;;;;;;;;;;;;;26.06;43.15;94618.16;5003099;28;6985;-57
2022/05/13 03:28:02;;;;;;;;;;;;;;;26.06;43.45;94618.16;5014918;28;7298;-57
2022/05/13 03:30:28;;;;;;;;;;;;;;;26.07;42.88;94624.44;5000308;28;9234;-57
2022/05/13 03:32:58;;;;;;;;;;;;;;;26.06;43.38;94626.44;5010474;28;9116;-58
2022/05/13 03:35:25;;;;;;;;;;;;;;;26.06;42.66;94633.94;5009175;28;7262;-57
2022/05/13 03:37:51;;;;;;;;;;;;;;;26.01;42.77;94627.19;5022039;28;7249;-57
2022/05/13 03:40:18;;;;;;;;;;;;;;;26.02;43.39;94630.72;5000762;28;9027;-57
2022/05/13 03:42:46;;;;;;;;;;;;;;;26.01;43.78;94632.72;5011141;28;7243;-57
2022/05/13 03:45:18;;;;;;;;;;;;;;;26.02;43.39;94625.97;5028658;28;9072;-57
2022/05/13 03:47:49;;;;;;;;;;;;;;;26.01;43.58;94632.72;5009615;28;6983;-55
2022/05/13 03:50:16;;;;;;;;;;;;;;;26.00;43.49;94625.72;5017743;28;6860;-56
2022/05/13 03:52:44;;;;;;;;;;;;;;;26.00;43.44;94625.72;5013201;28;7744;-57
2022/05/13 03:55:12;;;;;;;;;;;;;;;26.02;43.23;94617.69;5007466;28;7253;-56
2022/05/13 03:57:38;;;;;;;;;;;;;;;25.99;43.39;94615.94;5031559;28;9379;-57
2022/05/13 04:00:09;;;;;;;;;;;;;;;25.96;43.12;94616.97;5016112;28;9076;-56
2022/05/13 04:02:37;;;;;;;;;;;;;;;25.95;43.66;94620.22;5020188;28;8802;-55
2022/05/13 04:10:40;;;;;;;;;;;;;;;25.97;42.79;94626.72;5032548;28;9226;-57
2022/05/13 04:16:09;;;;;;;;;;;;;;;26.01;43.59;94638.22;5030766;28;6855;-56
2022/05/13 04:18:50;;;;;;;;;;;;;;;26.01;42.95;94643.75;5016571;28;8997;-56
2022/05/13 04:21:22;;;;;;;;;;;;;;;26.01;42.77;94643.75;5005657;28;9351;-56
2022/05/13 04:24:00;;;;;;;;;;;;;;;26.00;42.98;94645.00;5015383;28;9446;-56
2022/05/13 04:26:27;;;;;;;;;;;;;;;26.00;43.62;94634.00;5032323;28;9518;-56
2022/05/13 04:28:55;;;;;;;;;;;;;;;25.99;43.23;94631.75;5039084;28;7154;-56
2022/05/13 04:31:25;;;;;;;;;;;;;;;25.99;43.44;94635.22;5028895;28;8634;-56
2022/05/13 04:33:52;;;;;;;;;;;;;;;25.98;43.01;94639.25;5007080;28;8732;-56
2022/05/13 04:36:20;;;;;;;;;;;;;;;25.98;43.17;94644.78;5015150;28;8966;-57
2022/05/13 04:38:47;;;;;;;;;;;;;;;25.96;43.02;94641.78;5018723;28;7250;-57
2022/05/13 04:44:10;;;;;;;;;;;;;;;25.92;43.18;94655.06;5028367;28;8954;-56
2022/05/13 04:46:37;;;;;;;;;;;;;;;25.95;43.09;94648.53;5011526;28;7299;-56
2022/05/13 04:49:06;;;;;;;;;;;;;;;25.91;44.23;94650.81;4999532;28;7057;-57
2022/05/13 04:51:33;;;;;;;;;;;;;;;25.90;43.94;94645.81;5029045;28;6856;-57
2022/05/13 04:53:59;;;;;;;;;;;;;;;25.89;43.87;94647.81;5021423;28;8776;-57
2022/05/13 04:56:29;;;;;;;;;;;;;;;25.88;43.64;94651.81;5015322;28;9698;-56
2022/05/13 04:59:25;;;;;;;;;;;;;;;25.92;43.38;94641.28;5010190;28;7365;-57
2022/05/13 05:02:00;;;;;;;;;;;;;;;25.91;43.87;94628.75;4996903;28;9394;-57
2022/05/13 05:04:26;;;;;;;;;;;;;;;25.96;43.71;94643.78;5004971;28;7244;-57
2022/05/13 05:06:55;;;;;;;;;;;;;;;25.96;43.48;94647.28;5004840;28;9404;-57
2022/05/13 05:09:21;;;;;;;;;;;;;;;25.94;43.27;94641.53;4996396;28;7352;-57
2022/05/13 05:11:46;;;;;;;;;;;;;;;25.94;43.33;94644.28;4991114;28;7162;-57
2022/05/13 05:14:12;;;;;;;;;;;;;;;25.93;43.30;94655.81;4992374;28;7260;-57
2022/05/13 05:16:41;;;;;;;;;;;;;;;25.88;43.57;94651.06;5012121;28;7109;-57
2022/05/13 05:19:10;;;;;;;;;;;;;;;25.89;43.91;94650.56;4992611;28;7216;-57
2022/05/13 05:21:36;;;;;;;;;;;;;;;25.91;44.38;94648.03;5015358;28;9076;-57
2022/05/13 05:24:03;;;;;;;;;;;;;;;25.90;43.28;94652.03;4994053;28;7067;-57
2022/05/13 05:26:31;;;;;;;;;;;;;;;25.91;43.11;94655.56;5009069;28;7588;-57
2022/05/13 05:28:57;;;;;;;;;;;;;;;25.85;43.51;94655.59;5007912;28;9466;-58
2022/05/13 05:31:24;;;;;;;;;;;;;;;25.81;44.07;94644.09;5008029;28;7313;-57
2022/05/13 05:33:50;;;;;;;;;;;;;;;25.90;43.52;94648.56;4993434;28;9579;-57
2022/05/13 05:36:17;;;;;;;;;;;;;;;25.83;44.27;94649.09;4990493;28;7704;-57
2022/05/13 05:38:44;;;;;;;;;;;;;;;25.81;43.47;94652.34;5012347;28;8044;-57
2022/05/13 05:41:10;;;;;;;;;;;;;;;25.78;43.68;94647.09;5010639;28;7233;-57
2022/05/13 05:43:36;;;;;;;;;;;;;;;25.83;43.84;94652.59;5008697;28;6958;-57
2022/05/13 05:46:03;;;;;;;;;;;;;;;25.83;43.75;94649.09;5024453;28;6859;-57
2022/05/13 05:48:30;;;;;;;;;;;;;;;25.82;43.61;94653.84;5029865;28;6923;-57
2022/05/13 05:50:58;;;;;;;;;;;;;;;25.83;43.32;94658.09;5000307;28;9623;-57
2022/05/13 05:59:00;;;;;;;;;;;;;;;25.82;44.28;94659.34;5025367;28;6890;-56
2022/05/13 06:01:27;;;;;;;;;;;;;;;25.81;43.73;94660.63;5023895;28;7228;-56
2022/05/13 06:03:53;;;;;;;;;;;;;;;25.81;43.58;94660.63;5010980;28;9361;-56
2022/05/13 06:06:20;;;;;;;;;;;;;;;25.83;43.36;94665.63;5008524;28;7652;-56
2022/05/13 06:08:46;;;;;;;;;;;;;;;25.78;44.16;94652.59;5001123;28;7139;-56
2022/05/13 06:11:12;;;;;;;;;;;;;;;25.79;44.23;94662.38;5008738;28;8739;-55
2022/05/13 06:13:43;;;;;;;;;;;;;;;25.78;43.58;94656.09;5018241;28;7281;-55
2022/05/13 06:16:09;;;;;;;;;;;;;;;25.77;44.17;94660.13;5014340;28;7226;-56
2022/05/13 06:18:38;;;;;;;;;;;;;;;25.77;43.75;94657.38;5035482;28;9095;-56
2022/05/13 06:21:18;;;;;;;;;;;;;;;25.80;44.10;94658.34;5007083;28;7490;-56
2022/05/13 06:23:54;;;;;;;;;;;;;;;25.81;43.71;94668.13;5016891;28;7146;-55
2022/05/13 06:26:21;;;;;;;;;;;;;;;25.80;44.32;94669.38;5016241;28;7473;-56
2022/05/13 06:28:50;;;;;;;;;;;;;;;25.83;43.66;94660.09;5012028;28;7172;-56
2022/05/13 06:31:18;;;;;;;;;;;;;;;25.81;43.91;94666.13;5010721;28;7058;-57
2022/05/13 06:33:47;;;;;;;;;;;;;;;25.77;43.57;94668.41;5027679;28;7428;-57
2022/05/13 06:36:41;;;;;;;;;;;;;;;25.77;43.60;94662.88;5028613;28;7007;-57
2022/05/13 06:39:14;;;;;;;;;;;;;;;25.77;43.23;94662.88;5020240;28;7600;-57
2022/05/13 06:41:40;;;;;;;;;;;;;;;25.76;43.74;94664.13;5028407;28;7506;-57
2022/05/13 06:44:20;;;;;;;;;;;;;;;25.77;43.75;94668.41;5011063;28;7666;-57
2022/05/13 06:46:49;;;;;;;;;;;;;;;25.77;43.23;94673.16;5021586;28;7212;-57
2022/05/13 06:49:15;;;;;;;;;;;;;;;25.76;43.57;94677.16;5024775;28;9035;-55
2022/05/13 06:51:44;;;;;;;;;;;;;;;25.75;43.72;94670.16;5020095;28;7075;-56
2022/05/13 06:54:14;;;;;;;;;;;;;;;25.70;43.49;94668.91;5000790;28;9310;-56
2022/05/13 06:56:41;;;;;;;;;;;;;;;25.72;43.24;94669.16;5016150;28;9185;-56
2022/05/13 06:59:09;;;;;;;;;;;;;;;25.70;43.82;94671.66;5007452;28;8664;-56
2022/05/13 07:01:36;;;;;;;;;;;;;;;25.70;43.81;94674.41;5024412;28;7051;-55
2022/05/13 07:04:04;;;;;;;;;;;;;;;25.68;44.06;94671.41;5002479;28;9387;-56
2022/05/13 07:06:30;;;;;;;;;;;;;;;25.67;43.88;94672.66;5007610;28;7037;-56
2022/05/13 07:08:56;;;;;;;;;;;;;;;25.68;43.92;94668.66;5024337;28;7435;-57
2022/05/13 07:11:23;;;;;;;;;;;;;;;25.70;43.84;94670.91;5026429;28;9405;-57
2022/05/13 07:13:49;;;;;;;;;;;;;;;25.76;44.42;94671.63;5007579;28;9211;-56
2022/05/13 07:16:15;;;;;;;;;;;;;;;25.77;44.11;94679.41;5007449;28;7221;-56
2022/05/13 07:18:46;;;;;;;;;;;;;;;25.72;43.93;94677.41;5022535;28;6880;-56
2022/05/13 07:21:14;;;;;;;;;;;;;;;25.72;43.46;94671.91;5023980;28;8785;-57
2022/05/13 07:23:40;;;;;;;;;;;;;;;25.71;43.37;94675.91;5023963;28;8829;-56
2022/05/13 07:26:11;;;;;;;;;;;;;;;25.69;43.17;94674.91;5023510;28;7123;-56
2022/05/13 07:28:38;;;;;;;;;;;;;;;25.74;43.81;94674.16;5029004;28;8010;-56
2022/05/13 07:31:11;;;;;;;;;;;;;;;25.76;44.10;94672.41;4987580;28;9123;-56
2022/05/13 07:33:44;;;;;;;;;;;;;;;25.78;43.43;94672.63;5006949;28;8923;-56
2022/05/13 07:36:11;;;;;;;;;;;;;;;25.80;43.89;94678.41;5009128;28;7663;-55
2022/05/13 07:41:16;;;;;;;;;;;;;;;25.77;43.76;94679.41;5017288;28;9405;-57
2022/05/13 07:41:25;;;;;;;;;;;;;;;25.78;44.09;94680.16;5028640;28;9255;-56
2022/05/13 07:43:52;;;;;;;;;;;;;;;25.76;43.16;94680.66;5022952;28;8782;-56
2022/05/13 07:46:18;;;;;;;;;;;;;;;25.74;43.82;94680.41;5012482;28;8668;-55
2022/05/13 07:48:45;;;;;;;;;;;;;;;25.73;43.13;94675.41;5010391;28;7130;-55
2022/05/13 07:51:17;;;;;;;;;;;;;;;25.73;44.07;94675.41;5026236;28;9096;-56
2022/05/13 07:53:44;;;;;;;;;;;;;;;25.71;43.00;94683.44;5024657;28;7301;-56
2022/05/13 07:56:17;;;;;;;;;;;;;;;25.72;43.91;94685.69;5009898;28;9106;-56
2022/05/13 07:58:45;;;;;;;;;;;;;;;25.71;43.56;94675.91;5032526;28;9352;-56
2022/05/13 08:01:26;;;;;;;;;;;;;;;25.71;43.69;94692.44;5013804;28;9099;-56
2022/05/13 08:03:57;;;;;;;;;;;;;;;25.72;43.68;94687.69;5027044;28;9125;-55
2022/05/13 08:06:24;;;;;;;;;;;;;;;25.72;43.72;94682.19;5027320;28;7380;-56
2022/05/13 08:08:56;;;;;;;;;;;;;;;25.71;43.63;94686.94;5008964;28;7416;-56
2022/05/13 08:11:23;;;;;;;;;;;;;;;25.70;43.63;94677.19;5025839;28;8982;-56
2022/05/13 08:13:50;;;;;;;;;;;;;;;25.71;43.31;94689.69;5019800;28;7426;-56
2022/05/13 08:16:20;;;;;;;;;;;;;;;25.72;43.29;94682.19;5025056;28;7332;-56
2022/05/13 08:18:46;;;;;;;;;;;;;;;25.71;43.04;94683.44;5029732;28;8832;-56
2022/05/13 08:21:13;;;;;;;;;;;;;;;25.70;43.04;94681.94;5001012;28;9496;-53
2022/05/13 08:23:40;;;;;;;;;;;;;;;25.71;43.63;94686.19;5029621;28;7372;-54
2022/05/13 08:26:12;;;;;;;;;;;;;;;25.70;43.18;94688.19;5013649;28;6989;-56
2022/05/13 08:28:41;;;;;;;;;;;;;;;25.70;43.64;94688.19;5008858;28;6996;-55
2022/05/13 08:31:09;;;;;;;;;;;;;;;25.71;43.00;94686.19;4998204;28;6989;-55
2022/05/13 08:33:42;;;;;;;;;;;;;;;25.73;43.18;94692.69;5003169;28;9406;-55
2022/05/13 08:36:10;;;;;;;;;;;;;;;25.73;43.72;94687.16;5003834;28;7130;-56
2022/05/13 08:38:47;;;;;;;;;;;;;;;25.73;43.35;94697.47;5017671;28;6856;-56
2022/05/13 08:41:40;;;;;;;;;;;;;;;25.78;44.46;94694.69;5009961;28;7364;-56
2022/05/13 08:44:09;;;;;;;;;;;;;;;25.81;44.21;94693.69;4935847;28;9228;-57
2022/05/13 08:46:53;;;;;;;;;;;;;;;25.81;44.15;94701.94;4925110;28;7079;-57
2022/05/13 08:49:48;;;;;;;;;;;;;;;25.79;43.55;94698.19;4964034;28;9263;-55
2022/05/13 08:53:09;;;;;;;;;;;;;;;25.79;44.54;94704.47;4951428;28;6856;-56
2022/05/13 08:55:42;;;;;;;;;;;;;;;25.80;44.03;94696.94;4968595;28;7275;-56
2022/05/13 08:58:17;;;;;;;;;;;;;;;25.81;43.50;94701.94;4936574;28;8729;-55
2022/05/13 09:00:52;;;;;;;;;;;;;;;25.80;44.19;94703.19;4932209;28;7091;-55
2022/05/13 09:03:40;;;;;;;;;;;;;;;25.81;43.99;94703.94;4956581;28;9265;-55
2022/05/13 09:06:12;;;;;;;;;;;;;;;25.77;44.20;94698.72;4935703;28;7271;-55
2022/05/13 09:08:38;;;;;;;;;;;;;;;25.78;43.16;94702.94;4947274;28;8777;-55
2022/05/13 09:11:31;;;;;;;;;;;;;;;25.80;43.88;94710.69;4960884;28;9092;-55
2022/05/13 09:14:21;;;;;;;;;;;;;;;25.79;43.29;94704.47;4919681;28;8223;-55
2022/05/13 09:17:02;;;;;;;;;;;;;;;25.80;43.58;94699.69;4961850;28;10216;-55
2022/05/13 09:19:37;;;;;;;;;;;;;;;25.80;43.94;94713.47;4961482;28;9417;-55
2022/05/13 09:22:10;;;;;;;;;;;;;;;25.79;43.34;94717.47;5019589;28;7081;-56
2022/05/13 09:24:37;;;;;;;;;;;;;;;25.78;43.99;94713.97;5022414;28;9175;-56
2022/05/13 09:27:04;;;;;;;;;;;;;;;25.78;43.80;94716.72;5011540;28;7175;-56
2022/05/13 09:29:44;;;;;;;;;;;;;;;25.85;44.20;94718.97;5009240;28;8743;-57
2022/05/13 09:32:22;;;;;;;;;;;;;;;25.88;44.56;94717.94;5026201;28;9059;-57
2022/05/13 09:35:00;;;;;;;;;;;;;;;25.88;44.85;94717.94;5009412;28;6867;-57
2022/05/13 09:37:48;;;;;;;;;;;;;;;25.84;44.70;94716.69;5012186;28;6886;-57
2022/05/13 09:40:31;;;;;;;;;;;;;;;25.83;44.33;94710.47;5009871;28;8833;-57
2022/05/13 09:43:04;;;;;;;;;;;;;;;25.86;43.57;94709.44;5010283;28;8748;-56
2022/05/13 09:45:44;;;;;;;;;;;;;;;25.88;44.17;94714.47;5010092;28;9154;-56
2022/05/13 09:48:20;;;;;;;;;;;;;;;25.86;43.80;94720.47;5009867;28;7403;-56
2022/05/13 09:50:55;;;;;;;;;;;;;;;25.86;44.27;94716.97;5006990;28;9123;-56
2022/05/13 09:53:22;;;;;;;;;;;;;;;25.87;44.13;94710.94;5030785;28;8773;-56
2022/05/13 09:55:53;;;;;;;;;;;;;;;25.86;43.95;94714.94;5004338;28;9406;-56
2022/05/13 09:58:51;;;;;;;;;;;;;;;25.86;43.75;94711.47;5035206;28;8156;-56
2022/05/13 10:01:30;;;;;;;;;;;;;;;25.86;44.15;94703.19;4988753;28;7093;-57
2022/05/13 10:04:22;;;;;;;;;;;;;;;25.85;43.84;94702.44;4955623;28;7137;-56
2022/05/13 10:06:48;;;;;;;;;;;;;;;25.83;44.15;94696.69;4980107;28;8857;-56
2022/05/13 10:15:13;;;;;;;;;;;;;;;25.82;44.65;94700.69;4987622;28;7249;-57
2022/05/13 10:17:50;;;;;;;;;;;;;;;25.84;45.09;94705.69;4991502;28;8431;-56
2022/05/13 10:20:38;;;;;;;;;;;;;;;25.82;45.36;94702.69;4973952;28;8959;-56
2022/05/13 10:23:33;;;;;;;;;;;;;;;25.85;44.67;94707.94;4979000;28;7919;-57
2022/05/13 10:26:29;;;;;;;;;;;;;;;25.86;44.81;94714.94;4984075;28;7339;-57
2022/05/13 10:29:17;;;;;;;;;;;;;;;25.86;44.78;94712.19;4963788;28;6881;-57
2022/05/13 10:31:49;;;;;;;;;;;;;;;25.88;45.30;94709.69;4984731;28;7254;-57
2022/05/13 10:34:38;;;;;;;;;;;;;;;25.87;45.23;94705.44;4985133;28;8230;-57
2022/05/13 10:37:17;;;;;;;;;;;;;;;25.91;45.46;94713.44;4975551;28;9047;-57
2022/05/13 10:39:51;;;;;;;;;;;;;;;25.93;44.72;94708.91;5013783;28;7424;-57
2022/05/13 10:42:34;;;;;;;;;;;;;;;25.94;44.78;94715.19;5025686;28;8925;-56
2022/05/13 10:45:00;;;;;;;;;;;;;;;25.94;44.42;94715.94;5006081;28;9334;-57
2022/05/13 10:47:37;;;;;;;;;;;;;;;25.96;44.12;94707.91;5003525;28;8907;-56
2022/05/13 10:50:45;;;;;;;;;;;;;;;25.96;44.79;94713.44;5011910;28;7972;-56
2022/05/13 10:53:46;;;;;;;;;;;;;;;25.96;44.83;94707.91;4989603;28;7530;-56
2022/05/13 10:56:21;;;;;;;;;;;;;;;25.99;44.12;94706.91;4997350;28;7420;-56
2022/05/13 10:59:15;;;;;;;;;;;;;;;25.98;44.51;94705.41;4995132;28;7087;-57
2022/05/13 11:01:54;;;;;;;;;;;;;;;25.97;44.80;94697.63;5004126;28;9081;-57
2022/05/13 11:04:59;;;;;;;;;;;;;;;25.99;45.00;94706.91;4993679;28;8153;-57
2022/05/13 11:07:59;;;;;;;;;;;;;;;25.96;45.18;94705.16;5006539;28;9058;-56
2022/05/13 11:10:35;;;;;;;;;;;;;;;25.97;45.06;94714.91;4999567;28;7875;-57
2022/05/13 11:13:33;;;;;;;;;;;;;;;26.01;44.65;94707.13;4998556;28;7293;-57
2022/05/13 11:16:29;;;;;;;;;;;;;;;26.00;44.72;94711.16;5008038;28;7080;-57
2022/05/13 11:19:05;;;;;;;;;;;;;;;26.01;45.22;94706.41;4911248;29;7240;-56
2022/05/13 11:21:53;;;;;;;;;;;;;;;26.00;44.97;94705.66;4903508;29;9116;-57
2022/05/13 11:28:08;;;;;;;;;;;;;;;26.02;44.71;94716.16;4834320;29;7687;-56
2022/05/13 11:30:51;;;;;;;;;;;;;;;26.05;44.87;94707.66;4832392;29;7297;-56
2022/05/13 11:33:28;;;;;;;;;;;;;;;26.05;44.90;94710.41;4829377;29;7216;-56
2022/05/13 11:36:19;;;;;;;;;;;;;;;26.02;45.02;94708.66;4840621;29;9051;-56
2022/05/13 11:39:25;;;;;;;;;;;;;;;26.04;45.94;94708.88;4852295;29;9149;-55
2022/05/13 11:42:15;;;;;;;;;;;;;;;26.04;46.05;94706.13;4847421;29;6938;-56
2022/05/13 11:44:55;;;;;;;;;;;;;;;26.02;46.65;94716.91;4834239;29;7613;-56
2022/05/13 11:48:23;;;;;;;;;;;;;;;26.02;45.87;94708.66;4851908;29;7335;-56
2022/05/13 11:50:50;;;;;;;;;;;;;;;26.03;45.70;94710.13;4742108;30;6853;-55
2022/05/13 11:53:44;;;;;;;;;;;;;;;26.05;45.67;94710.41;4741315;30;7496;-55
2022/05/13 11:56:31;;;;;;;;;;;;;;;26.04;46.10;94706.13;4787686;29;6857;-56
2022/05/13 11:59:31;;;;;;;;;;;;;;;26.02;45.92;94707.88;4831556;29;7243;-56
2022/05/13 12:02:28;;;;;;;;;;;;;;;26.04;45.60;94703.38;4842927;29;7346;-54
2022/05/13 12:05:24;;;;;;;;;;;;;;;26.06;45.40;94702.88;4875642;29;7160;-56
2022/05/13 12:08:08;;;;;;;;;;;;;;;26.06;44.85;94700.88;4885708;29;9100;-56
2022/05/13 12:10:53;;;;;;;;;;;;;;;26.07;45.57;94696.88;4882077;29;7087;-56
2022/05/13 12:13:29;;;;;;;;;;;;;;;26.10;45.23;94706.13;4884451;29;8980;-56
2022/05/13 12:16:36;;;;;;;;;;;;;;;26.09;45.94;94702.66;4884465;29;9400;-56
2022/05/13 12:19:49;;;;;;;;;;;;;;;26.05;45.14;94710.41;4896479;29;7284;-56
2022/05/13 12:22:42;;;;;;;;;;;;;;;26.02;46.02;94711.41;4940420;28;8956;-56
2022/05/13 12:25:47;;;;;;;;;;;;;;;25.98;45.40;94712.91;4946574;28;8993;-55
2022/05/13 12:28:48;;;;;;;;;;;;;;;25.99;46.00;94717.91;5012535;28;9202;-56
2022/05/13 12:31:37;;;;;;;;;;;;;;;26.00;46.21;94719.44;5027805;28;7157;-57
2022/05/13 12:40:03;;;;;;;;;;;;;;;26.00;45.66;94705.66;5017973;28;9181;-56
2022/05/13 12:42:52;;;;;;;;;;;;;;;25.99;45.88;94701.38;5002049;28;9396;-56
2022/05/13 12:45:38;;;;;;;;;;;;;;;26.01;46.32;94698.13;5014253;28;8769;-56
2022/05/13 12:48:09;;;;;;;;;;;;;;;25.98;46.29;94705.41;5007720;28;8959;-56
2022/05/13 12:50:49;;;;;;;;;;;;;;;26.01;46.75;94707.13;5006610;28;7300;-56
2022/05/13 12:53:28;;;;;;;;;;;;;;;26.06;46.69;94703.63;5010132;28;7672;-56
2022/05/13 12:56:16;;;;;;;;;;;;;;;26.05;46.44;94696.63;5012559;28;8980;-56
2022/05/13 12:59:08;;;;;;;;;;;;;;;26.05;47.21;94704.88;5027971;28;7364;-56
2022/05/13 13:01:41;;;;;;;;;;;;;;;26.03;46.74;94707.38;5015157;28;9020;-56
2022/05/13 13:04:09;;;;;;;;;;;;;;;26.05;46.53;94706.88;5014938;28;7353;-56
2022/05/13 13:06:51;;;;;;;;;;;;;;;26.07;47.21;94712.66;5023871;28;8852;-56
2022/05/13 13:09:33;;;;;;;;;;;;;;;26.06;47.40;94711.88;5029043;28;9040;-56
2022/05/13 13:12:34;;;;;;;;;;;;;;;26.10;47.55;94711.66;5026296;28;7343;-57
2022/05/13 13:15:37;;;;;;;;;;;;;;;26.12;47.13;94712.66;5017952;28;7069;-56
2022/05/13 13:18:11;;;;;;;;;;;;;;;26.12;47.45;94715.41;4964210;28;8665;-57
2022/05/13 13:20:46;;;;;;;;;;;;;;;26.09;47.42;94715.69;4967196;28;9474;-57
2022/05/13 13:23:18;;;;;;;;;;;;;;;26.09;46.92;94710.16;4977616;28;8061;-56
2022/05/13 13:25:50;;;;;;;;;;;;;;;26.11;47.44;94705.66;4976239;28;8647;-56
2022/05/13 13:28:40;;;;;;;;;;;;;;;26.18;47.42;94712.63;4970204;28;8603;-56
2022/05/13 13:31:11;;;;;;;;;;;;;;;26.16;47.42;94707.63;4958856;28;9107;-56
2022/05/13 13:34:00;;;;;;;;;;;;;;;26.17;47.65;94703.63;4957618;28;7341;-56
2022/05/13 13:36:41;;;;;;;;;;;;;;;26.13;47.09;94702.38;4987056;28;7488;-56
2022/05/13 13:39:09;;;;;;;;;;;;;;;26.17;47.36;94700.84;4967230;28;7033;-55
2022/05/13 13:42:15;;;;;;;;;;;;;;;26.16;47.14;94698.63;4965148;28;9796;-55
2022/05/13 13:45:13;;;;;;;;;;;;;;;26.14;47.28;94693.59;4968940;28;9349;-55
2022/05/13 13:48:07;;;;;;;;;;;;;;;26.10;46.84;94693.09;4979426;28;9048;-55
2022/05/13 13:50:53;;;;;;;;;;;;;;;26.06;47.31;94700.09;4981432;28;9840;-55
2022/05/13 13:53:41;;;;;;;;;;;;;;;26.02;46.92;94691.34;5030307;28;7276;-55
2022/05/13 13:56:23;;;;;;;;;;;;;;;26.00;47.26;94688.34;5009738;28;7002;-56
2022/05/13 13:59:06;;;;;;;;;;;;;;;25.98;47.07;94685.34;5006375;28;8193;-56
2022/05/13 14:01:46;;;;;;;;;;;;;;;25.97;47.31;94692.88;5025508;28;7271;-57
2022/05/13 14:04:47;;;;;;;;;;;;;;;25.95;46.61;94689.13;5026567;28;9570;-57
2022/05/13 14:07:27;;;;;;;;;;;;;;;25.94;46.55;94695.91;5008418;28;7292;-55
2022/05/13 14:09:57;;;;;;;;;;;;;;;25.95;46.55;94680.84;5025710;28;7701;-55
2022/05/13 14:12:26;;;;;;;;;;;;;;;25.97;46.36;94687.34;5013762;28;7075;-55